createdAt,value
2023-02-23T00:00:44.750Z,101889.28
2023-02-23T00:03:35.741Z,101891.63
2023-02-23T00:06:32.894Z,101895.69
2023-02-23T00:09:35.801Z,101906.25
2023-02-23T00:12:27.024Z,101887.44
2023-02-23T00:15:16.764Z,101890.03
2023-02-23T00:18:06.488Z,101905.81
2023-02-23T00:21:00.402Z,101901.28
2023-02-23T00:23:51.879Z,101893.25
2023-02-23T00:26:43.262Z,101906.00
2023-02-23T00:29:38.602Z,101905.69
2023-02-23T00:32:28.031Z,101912.13
2023-02-23T00:35:20.641Z,101919.03
2023-02-23T00:38:11.786Z,101929.81
2023-02-23T00:41:01.027Z,101911.84
2023-02-23T00:43:50.672Z,101921.84
2023-02-23T00:46:40.860Z,101929.75
2023-02-23T00:49:30.093Z,101941.75
2023-02-23T00:52:19.343Z,101935.69
2023-02-23T00:55:16.442Z,101940.00
2023-02-23T00:58:06.671Z,101926.25
2023-02-23T01:00:56.611Z,101925.75
2023-02-23T01:03:47.594Z,101934.91
2023-02-23T01:06:38.317Z,101934.19
2023-02-23T01:09:29.497Z,101951.19
2023-02-23T01:12:20.191Z,101947.66
2023-02-23T01:15:12.160Z,101954.47
2023-02-23T01:18:01.627Z,101960.91
2023-02-23T01:20:51.062Z,101963.13
2023-02-23T01:23:40.436Z,101965.41
2023-02-23T01:26:34.164Z,101956.31
2023-02-23T01:29:25.493Z,101959.25
2023-02-23T01:32:14.969Z,101962.31
2023-02-23T01:35:06.237Z,101963.03
2023-02-23T01:37:55.516Z,101959.59
2023-02-23T01:40:47.412Z,101967.09
2023-02-23T01:43:37.311Z,101962.91
2023-02-23T01:46:28.652Z,101969.66
2023-02-23T01:49:21.928Z,101972.63
2023-02-23T01:52:14.765Z,101983.94
2023-02-23T01:55:05.807Z,101991.28
2023-02-23T01:58:02.268Z,101986.00
2023-02-23T02:00:56.132Z,101991.38
2023-02-23T02:03:52.985Z,101994.56
2023-02-23T02:06:42.335Z,101987.56
2023-02-23T02:09:37.935Z,101990.03
2023-02-23T02:12:27.209Z,101989.78
2023-02-23T02:15:18.204Z,101998.59
2023-02-23T02:18:23.496Z,102006.97
2023-02-23T02:22:27.382Z,102012.66
2023-02-23T02:25:38.351Z,101999.50
2023-02-23T02:29:00.843Z,102016.00
2023-02-23T02:32:33.094Z,102029.09
2023-02-23T02:35:58.910Z,102024.03
2023-02-23T02:39:01.098Z,102020.13
2023-02-23T02:41:58.514Z,102020.97
2023-02-23T02:44:57.362Z,102026.88
2023-02-23T02:47:54.567Z,102026.47
2023-02-23T02:50:50.277Z,102020.34
2023-02-23T02:53:49.899Z,102025.91
2023-02-23T02:56:44.518Z,102021.94
2023-02-23T03:00:00.587Z,102027.69
2023-02-23T03:03:08.104Z,102027.69
2023-02-23T03:06:14.676Z,102032.44
2023-02-23T03:09:30.436Z,102030.66
2023-02-23T03:12:49.887Z,102019.13
2023-02-23T03:16:14.363Z,102023.72
2023-02-23T03:19:34.489Z,102034.69
2023-02-23T03:22:48.914Z,102033.50
2023-02-23T03:26:10.004Z,102028.63
2023-02-23T03:29:28.153Z,102037.09
2023-02-23T03:35:46.276Z,102040.13
2023-02-23T03:39:00.595Z,102028.84
2023-02-23T03:42:10.782Z,102051.94
2023-02-23T03:45:27.123Z,102033.72
2023-02-23T03:48:38.546Z,102046.44
2023-02-23T03:51:49.454Z,102057.38
2023-02-23T03:55:03.510Z,102065.41
2023-02-23T03:58:15.491Z,102060.09
2023-02-23T04:01:26.350Z,102052.91
2023-02-23T04:04:32.832Z,102059.38
2023-02-23T04:07:41.252Z,102048.34
2023-02-23T04:10:50.130Z,102063.16
2023-02-23T04:13:40.242Z,102062.91
2023-02-23T04:16:30.581Z,102063.53
2023-02-23T04:19:19.886Z,102071.19
2023-02-23T04:22:09.125Z,102075.66
2023-02-23T04:25:00.034Z,102078.13
2023-02-23T04:27:49.319Z,102078.00
2023-02-23T04:30:38.536Z,102084.38
2023-02-23T04:33:27.862Z,102089.31
2023-02-23T04:36:17.529Z,102081.41
2023-02-23T04:39:06.682Z,102097.34
2023-02-23T04:41:57.326Z,102108.16
2023-02-23T04:44:46.700Z,102095.44
2023-02-23T04:47:35.946Z,102099.22
2023-02-23T04:50:25.204Z,102099.56
2023-02-23T04:53:14.435Z,102096.28
2023-02-23T04:56:04.349Z,102086.00
2023-02-23T04:58:54.994Z,102090.84
2023-02-23T05:01:44.263Z,102081.91
2023-02-23T05:04:35.390Z,102102.28
2023-02-23T05:07:24.726Z,102104.75
2023-02-23T05:10:14.503Z,102099.34
2023-02-23T05:13:03.796Z,102093.44
2023-02-23T05:15:58.789Z,102096.50
2023-02-23T05:18:48.855Z,102086.38
2023-02-23T05:21:38.747Z,102085.22
2023-02-23T05:24:27.947Z,102080.97
2023-02-23T05:27:17.964Z,102069.53
2023-02-23T05:30:10.084Z,102057.78
2023-02-23T05:33:00.846Z,102063.91
2023-02-23T05:35:50.240Z,102071.53
2023-02-23T05:38:39.800Z,102081.56
2023-02-23T05:41:29.025Z,102084.75
2023-02-23T05:44:18.346Z,102083.56
2023-02-23T05:47:07.579Z,102083.22
2023-02-23T05:49:58.837Z,102084.72
2023-02-23T05:52:52.331Z,102091.44
2023-02-23T05:55:44.716Z,102068.03
2023-02-23T05:58:35.665Z,102085.78
2023-02-23T06:01:26.447Z,102076.97
2023-02-23T06:04:17.381Z,102085.06
2023-02-23T06:07:08.150Z,102076.09
2023-02-23T06:10:04.590Z,102074.47
2023-02-23T06:12:53.906Z,102083.53
2023-02-23T06:15:43.951Z,102081.06
2023-02-23T06:18:40.814Z,102069.97
2023-02-23T06:21:30.102Z,102071.41
2023-02-23T06:24:24.443Z,102088.31
2023-02-23T06:27:14.221Z,102077.97
2023-02-23T06:30:03.570Z,102083.38
2023-02-23T06:32:55.130Z,102072.19
2023-02-23T06:35:44.730Z,102072.78
2023-02-23T06:38:34.547Z,102077.16
2023-02-23T06:41:25.875Z,102070.19
2023-02-23T06:44:16.373Z,102079.97
2023-02-23T06:47:09.167Z,102095.72
2023-02-23T06:50:00.073Z,102102.84
2023-02-23T06:52:51.683Z,102110.63
2023-02-23T06:55:43.820Z,102104.63
2023-02-23T06:58:34.412Z,102107.66
2023-02-23T07:01:24.342Z,102118.59
2023-02-23T07:04:16.359Z,102115.31
2023-02-23T07:07:06.600Z,102126.94
2023-02-23T07:09:56.060Z,102132.22
2023-02-23T07:12:49.483Z,102135.28
2023-02-23T07:15:41.858Z,102123.25
2023-02-23T07:18:37.158Z,102134.47
2023-02-23T07:21:26.376Z,102136.34
2023-02-23T07:24:15.616Z,102136.13
2023-02-23T07:27:05.226Z,102124.31
2023-02-23T07:29:54.788Z,102130.19
2023-02-23T07:32:45.785Z,102149.72
2023-02-23T07:35:38.452Z,102160.31
2023-02-23T07:38:30.060Z,102164.06
2023-02-23T07:41:19.986Z,102161.59
2023-02-23T07:44:11.286Z,102143.13
2023-02-23T07:47:02.448Z,102172.41
2023-02-23T07:49:53.174Z,102181.56
2023-02-23T07:52:44.512Z,102178.41
2023-02-23T07:55:33.791Z,102150.94
2023-02-23T07:58:23.363Z,102183.50
2023-02-23T08:01:14.066Z,102185.84
2023-02-23T08:04:03.465Z,102200.03
2023-02-23T08:06:55.245Z,102207.09
2023-02-23T08:09:44.479Z,102204.75
2023-02-23T08:12:34.792Z,102205.13
2023-02-23T08:15:24.155Z,102207.38
2023-02-23T08:18:16.303Z,102205.00
2023-02-23T08:21:07.819Z,102205.31
2023-02-23T08:23:58.987Z,102205.44
2023-02-23T08:26:50.591Z,102213.78
2023-02-23T08:29:39.818Z,102229.84
2023-02-23T08:32:29.967Z,102229.38
2023-02-23T08:35:20.334Z,102217.03
2023-02-23T08:38:09.641Z,102220.25
2023-02-23T08:41:03.039Z,102228.47
2023-02-23T08:43:52.588Z,102229.44
2023-02-23T08:46:41.938Z,102214.59
2023-02-23T08:49:31.492Z,102212.25
2023-02-23T08:52:21.193Z,102217.09
2023-02-23T08:55:11.944Z,102215.22
2023-02-23T08:58:02.796Z,102227.34
2023-02-23T09:00:52.282Z,102230.19
2023-02-23T09:03:42.022Z,102217.72
2023-02-23T09:06:31.888Z,102213.72
2023-02-23T09:09:21.137Z,102227.59
2023-02-23T09:12:10.767Z,102233.84
2023-02-23T09:15:02.397Z,102230.78
2023-02-23T09:17:51.957Z,102238.19
2023-02-23T09:20:44.036Z,102232.28
2023-02-23T09:23:33.314Z,102222.03
2023-02-23T09:26:23.141Z,102230.97
2023-02-23T09:29:12.373Z,102232.50
2023-02-23T09:32:02.983Z,102225.19
2023-02-23T09:34:52.633Z,102229.41
2023-02-23T09:37:41.840Z,102231.06
2023-02-23T09:40:39.344Z,102233.75
2023-02-23T09:43:35.354Z,102228.41
2023-02-23T09:46:34.339Z,102233.22
2023-02-23T09:49:29.463Z,102230.00
2023-02-23T09:52:24.766Z,102234.47
2023-02-23T09:55:15.673Z,102230.69
2023-02-23T09:58:17.245Z,102239.84
2023-02-23T10:01:51.248Z,102238.72
2023-02-23T10:04:44.913Z,102233.97
2023-02-23T10:07:44.614Z,102228.53
2023-02-23T10:10:42.952Z,102229.59
2023-02-23T10:13:45.229Z,102220.94
2023-02-23T10:16:47.419Z,102224.91
2023-02-23T10:19:48.050Z,102221.53
2023-02-23T10:22:39.049Z,102227.34
2023-02-23T10:25:33.041Z,102217.13
2023-02-23T10:28:23.784Z,102227.38
2023-02-23T10:31:29.322Z,102217.72
2023-02-23T10:34:21.837Z,102223.59
2023-02-23T10:37:15.710Z,102217.22
2023-02-23T10:40:05.555Z,102204.44
2023-02-23T10:42:55.564Z,102230.59
2023-02-23T10:45:51.088Z,102226.84
2023-02-23T10:48:43.839Z,102225.19
2023-02-23T10:51:38.613Z,102227.34
2023-02-23T10:54:47.705Z,102229.28
2023-02-23T10:57:41.454Z,102225.91
2023-02-23T11:00:33.334Z,102233.34
2023-02-23T11:03:33.403Z,102230.72
2023-02-23T11:06:32.344Z,102236.88
2023-02-23T11:09:43.200Z,102231.28
2023-02-23T11:12:42.078Z,102229.16
2023-02-23T11:15:49.941Z,102229.75
2023-02-23T11:18:43.191Z,102232.28
2023-02-23T11:21:34.826Z,102223.94
2023-02-23T11:24:27.629Z,102224.34
2023-02-23T11:27:25.024Z,102214.34
2023-02-23T11:30:17.414Z,102222.69
2023-02-23T11:33:11.054Z,102206.72
2023-02-23T11:36:02.476Z,102209.75
2023-02-23T11:39:19.340Z,102212.31
2023-02-23T11:42:20.842Z,102207.03
2023-02-23T11:45:23.987Z,102204.00
2023-02-23T11:48:23.496Z,102202.06
2023-02-23T11:51:13.540Z,102204.69
2023-02-23T11:54:05.734Z,102200.31
2023-02-23T11:56:58.143Z,102189.00
2023-02-23T11:59:48.134Z,102188.97
2023-02-23T12:02:53.822Z,102194.75
2023-02-23T12:05:51.269Z,102186.38
2023-02-23T12:08:48.729Z,102185.69
2023-02-23T12:11:45.341Z,102185.09
2023-02-23T12:14:42.352Z,102181.66
2023-02-23T12:17:41.273Z,102177.88
2023-02-23T12:20:37.126Z,102178.72
2023-02-23T12:23:31.765Z,102168.47
2023-02-23T12:26:24.036Z,102160.16
2023-02-23T12:29:25.118Z,102151.47
2023-02-23T12:32:19.248Z,102128.06
2023-02-23T12:35:17.847Z,102152.56
2023-02-23T12:38:16.601Z,102150.19
2023-02-23T12:41:13.000Z,102134.22
2023-02-23T12:44:13.405Z,102126.81
2023-02-23T12:47:10.403Z,102116.38
2023-02-23T12:50:07.509Z,102123.13
2023-02-23T12:53:02.647Z,102116.53
2023-02-23T12:56:10.680Z,102117.19
2023-02-23T12:59:16.277Z,102113.56
2023-02-23T13:02:13.768Z,102114.53
2023-02-23T13:05:24.467Z,102107.72
2023-02-23T13:08:25.789Z,102115.22
2023-02-23T13:11:28.076Z,102097.63
2023-02-23T13:14:28.083Z,102100.38
2023-02-23T13:17:39.343Z,102097.31
2023-02-23T13:20:36.671Z,102099.25
2023-02-23T13:23:36.150Z,102091.28
2023-02-23T13:26:36.141Z,102083.47
2023-02-23T13:29:40.094Z,102081.66
2023-02-23T13:32:36.337Z,102086.16
2023-02-23T13:35:27.242Z,102074.50
2023-02-23T13:38:21.200Z,102076.75
2023-02-23T13:41:29.487Z,102090.16
2023-02-23T13:44:29.605Z,102084.97
2023-02-23T13:47:35.960Z,102070.13
2023-02-23T13:50:32.559Z,102053.72
2023-02-23T13:53:41.047Z,102070.63
2023-02-23T13:56:38.331Z,102069.81
2023-02-23T13:59:33.414Z,102076.81
2023-02-23T14:02:36.662Z,102080.56
2023-02-23T14:05:27.840Z,102070.09
2023-02-23T14:08:32.644Z,102060.09
2023-02-23T14:11:52.066Z,102069.28
2023-02-23T14:14:44.899Z,102062.09
2023-02-23T14:17:43.946Z,102055.94
2023-02-23T14:20:56.365Z,102052.56
2023-02-23T14:24:14.352Z,102055.16
2023-02-23T14:27:45.124Z,102066.13
2023-02-23T14:30:51.015Z,102060.34
2023-02-23T14:33:57.718Z,102056.75
2023-02-23T14:36:47.169Z,102060.13
2023-02-23T14:39:36.772Z,102053.91
2023-02-23T14:42:28.235Z,102045.84
2023-02-23T14:45:27.331Z,102039.91
2023-02-23T14:48:17.189Z,102038.81
2023-02-23T14:51:23.035Z,102033.63
2023-02-23T14:54:16.781Z,102042.69
2023-02-23T14:57:08.710Z,102017.91
2023-02-23T15:00:00.973Z,102029.22
2023-02-23T15:03:01.819Z,102034.53
2023-02-23T15:05:57.436Z,102026.03
2023-02-23T15:08:47.076Z,102012.59
2023-02-23T15:11:37.272Z,102003.97
2023-02-23T15:14:28.415Z,102019.22
2023-02-23T15:17:22.030Z,102014.03
2023-02-23T15:20:17.999Z,102004.97
2023-02-23T15:23:08.315Z,101997.47
2023-02-23T15:25:57.759Z,102003.34
2023-02-23T15:28:48.435Z,102009.41
2023-02-23T15:31:41.293Z,101982.59
2023-02-23T15:34:31.699Z,101990.78
2023-02-23T15:37:32.041Z,101981.63
2023-02-23T15:40:25.751Z,101989.16
2023-02-23T15:43:15.011Z,101995.31
2023-02-23T15:46:07.195Z,101999.16
2023-02-23T15:49:03.382Z,101997.78
2023-02-23T15:51:59.799Z,102004.72
2023-02-23T15:55:00.226Z,101996.13
2023-02-23T15:57:55.948Z,101984.94
2023-02-23T16:00:51.508Z,101977.34
2023-02-23T16:03:47.249Z,101991.97
2023-02-23T16:06:39.747Z,101989.75
2023-02-23T16:09:31.310Z,101989.06
2023-02-23T16:12:26.150Z,101981.66
2023-02-23T16:15:26.529Z,101975.69
2023-02-23T16:18:20.153Z,101994.50
2023-02-23T16:21:17.213Z,101984.94
2023-02-23T16:24:11.719Z,101984.72
2023-02-23T16:27:02.659Z,101993.78
2023-02-23T16:30:01.296Z,102000.19
2023-02-23T16:33:04.046Z,101994.25
2023-02-23T16:36:06.464Z,101996.16
2023-02-23T16:39:01.481Z,101991.38
2023-02-23T16:41:51.243Z,101984.16
2023-02-23T16:44:43.636Z,101980.63
2023-02-23T16:47:43.703Z,101981.44
2023-02-23T16:50:36.383Z,101973.13
2023-02-23T16:53:25.600Z,101981.44
2023-02-23T16:56:19.120Z,101969.59
2023-02-23T16:59:09.695Z,101970.88
2023-02-23T17:01:58.879Z,101901.50
2023-02-23T17:04:50.161Z,101959.63
2023-02-23T17:07:39.583Z,101963.91
2023-02-23T17:10:33.066Z,101959.25
2023-02-23T17:13:24.773Z,101954.09
2023-02-23T17:16:15.353Z,101961.56
2023-02-23T17:19:04.565Z,101965.16
2023-02-23T17:21:55.115Z,101943.00
2023-02-23T17:24:45.145Z,101949.66
2023-02-23T17:27:34.569Z,101942.50
2023-02-23T17:30:25.094Z,101947.16
2023-02-23T17:33:14.709Z,101945.81
2023-02-23T17:36:07.829Z,101928.78
2023-02-23T17:38:58.781Z,101949.22
2023-02-23T17:41:48.187Z,101946.50
2023-02-23T17:44:37.405Z,101953.09
2023-02-23T17:47:26.717Z,101944.94
2023-02-23T17:50:16.262Z,101946.09
2023-02-23T17:53:05.664Z,101952.94
2023-02-23T17:55:57.225Z,101948.31
2023-02-23T17:58:48.023Z,101951.84
2023-02-23T18:01:37.831Z,101962.31
2023-02-23T18:04:27.142Z,101957.38
2023-02-23T18:07:16.749Z,101953.84
2023-02-23T18:10:07.879Z,101958.78
2023-02-23T18:12:58.498Z,101961.50
2023-02-23T18:15:52.294Z,101953.84
2023-02-23T18:18:45.731Z,101951.69
2023-02-23T18:21:39.438Z,101945.44
2023-02-23T18:24:31.985Z,101955.47
2023-02-23T18:27:21.264Z,101950.56
2023-02-23T18:30:14.430Z,101962.09
2023-02-23T18:33:03.480Z,101953.59
2023-02-23T18:35:52.867Z,101947.03
2023-02-23T18:38:42.088Z,101956.06
2023-02-23T18:41:31.824Z,101953.91
2023-02-23T18:44:22.025Z,101952.25
2023-02-23T18:47:13.007Z,101948.19
2023-02-23T18:50:02.224Z,101942.72
2023-02-23T18:52:52.080Z,101940.56
2023-02-23T18:55:42.100Z,101944.34
2023-02-23T18:58:31.371Z,101944.34
2023-02-23T19:01:24.407Z,101937.56
2023-02-23T19:04:16.359Z,101945.75
2023-02-23T19:07:05.587Z,101934.56
2023-02-23T19:09:54.862Z,101927.19
2023-02-23T19:12:44.609Z,101930.47
2023-02-23T19:15:33.923Z,101929.38
2023-02-23T19:18:23.648Z,101938.94
2023-02-23T19:21:14.514Z,101919.56
2023-02-23T19:24:05.286Z,101937.59
2023-02-23T19:26:54.511Z,101929.66
2023-02-23T19:29:44.397Z,101919.31
2023-02-23T19:32:33.881Z,101926.69
2023-02-23T19:35:24.390Z,101919.88
2023-02-23T19:38:16.968Z,101916.03
2023-02-23T19:41:07.231Z,101919.59
2023-02-23T19:43:58.496Z,101925.88
2023-02-23T19:46:47.799Z,101922.31
2023-02-23T19:49:37.079Z,101923.41
2023-02-23T19:52:28.923Z,101909.50
2023-02-23T19:55:20.380Z,101907.88
2023-02-23T19:58:10.444Z,101905.41
2023-02-23T20:01:05.363Z,101914.41
2023-02-23T20:03:56.807Z,101898.59
2023-02-23T20:06:47.309Z,101916.34
2023-02-23T20:09:37.484Z,101896.66
2023-02-23T20:12:28.754Z,101890.91
2023-02-23T20:15:18.009Z,101895.31
2023-02-23T20:18:08.138Z,101900.50
2023-02-23T20:20:57.450Z,101897.22
2023-02-23T20:23:50.353Z,101883.84
2023-02-23T20:26:39.814Z,101889.84
2023-02-23T20:29:30.613Z,101883.56
2023-02-23T20:32:21.082Z,101893.13
2023-02-23T20:35:13.131Z,101892.56
2023-02-23T20:38:04.317Z,101888.75
2023-02-23T20:40:54.679Z,101888.75
2023-02-23T20:43:44.941Z,101898.31
2023-02-23T20:46:35.833Z,101889.84
2023-02-23T20:49:27.554Z,101895.84
2023-02-23T20:52:17.005Z,101894.78
2023-02-23T20:55:08.135Z,101896.94
2023-02-23T20:57:58.909Z,101900.25
2023-02-23T21:00:49.221Z,101893.69
2023-02-23T21:03:39.961Z,101899.97
2023-02-23T21:06:31.763Z,101895.88
2023-02-23T21:09:22.344Z,101892.06
2023-02-23T21:12:12.704Z,101905.16
2023-02-23T21:15:04.586Z,101899.69
2023-02-23T21:17:54.576Z,101890.97
2023-02-23T21:20:47.012Z,101898.63
2023-02-23T21:23:36.815Z,101893.66
2023-02-23T21:26:26.072Z,101882.25
2023-02-23T21:29:16.858Z,101884.41
2023-02-23T21:32:07.633Z,101903.25
2023-02-23T21:34:59.354Z,101900.78
2023-02-23T21:37:53.039Z,101890.69
2023-02-23T21:40:45.578Z,101891.75
2023-02-23T21:43:39.487Z,101889.88
2023-02-23T21:46:30.615Z,101887.69
2023-02-23T21:49:21.455Z,101879.75
2023-02-23T21:52:13.818Z,101889.34
2023-02-23T21:55:08.043Z,101872.94
2023-02-23T21:57:59.896Z,101888.78
2023-02-23T22:00:50.716Z,101883.31
2023-02-23T22:03:45.228Z,101883.31
2023-02-23T22:06:41.749Z,101879.78
2023-02-23T22:09:31.231Z,101868.59
2023-02-23T22:12:21.892Z,101867.22
2023-02-23T22:15:12.682Z,101866.16
2023-02-23T22:18:05.270Z,101856.06
2023-02-23T22:21:01.508Z,101848.13
2023-02-23T22:23:54.355Z,101847.03
2023-02-23T22:26:50.695Z,101825.78
2023-02-23T22:29:41.487Z,101848.38
2023-02-23T22:32:33.157Z,101841.28
2023-02-23T22:35:23.402Z,101841.28
2023-02-23T22:38:13.784Z,101837.78
2023-02-23T22:41:05.471Z,101839.94
2023-02-23T22:43:58.745Z,101820.31
2023-02-23T22:46:50.177Z,101828.75
2023-02-23T22:49:43.142Z,101824.09
2023-02-23T22:52:34.766Z,101826.28
2023-02-23T22:55:29.395Z,101828.78
2023-02-23T22:58:23.249Z,101823.28
2023-02-23T23:01:22.244Z,101830.69
2023-02-23T23:04:14.949Z,101821.66
2023-02-23T23:07:04.598Z,101820.84
2023-02-23T23:09:53.958Z,101816.75
2023-02-23T23:12:45.449Z,101809.66
2023-02-23T23:15:34.703Z,101808.56
2023-02-23T23:18:24.643Z,101797.13
2023-02-23T23:21:21.940Z,101788.94
2023-02-23T23:24:15.286Z,101797.94
2023-02-23T23:27:08.279Z,101801.72
2023-02-23T23:29:58.508Z,101809.66
2023-02-23T23:32:47.933Z,101806.13
2023-02-23T23:35:38.182Z,101798.22
2023-02-23T23:38:28.885Z,101797.13
2023-02-23T23:41:21.056Z,101766.59
2023-02-23T23:44:13.376Z,101764.94
2023-02-23T23:47:05.507Z,101771.75
2023-02-23T23:49:56.109Z,101774.50
2023-02-23T23:52:47.543Z,101780.75
2023-02-23T23:55:38.233Z,101780.75
2023-02-23T23:58:27.460Z,101785.09
